Language selection

Weather shortcuts

Bowie - southern half: Past 24 Hour Conditions

 

South Nomad - 46036

01:00 PM PDT 19 May 2024Buoy position: 48.35N 133.95W
Disclaimer

This table is a summary of hourly weather conditions for the past 24 hours.
Please note that these observations might not always be representative of weather conditions over their associated marine area.

Date / Time
(PDT)
Wind(knots) Wave height(m) Wave period(s) Pressure(kPa) Air tempC) Water tempC)
19 May 2024
13:00 W 9 gusts 11 1.60 18.3 103.3 N/A 10
12:00 W 10 gusts 13 1.60 9.5 103.2 N/A 10
11:00 WNW 10 gusts 12 1.70 19.7 103.2 N/A 10
10:00 WNW 8 gusts 10 1.60 19.7 103.2 N/A 10
9:00 WNW 9 gusts 11 1.70 7.5 103.2 N/A 10
8:00 NW 11 gusts 13 1.70 7.3 103.1 N/A 10
7:00 WNW 13 gusts 16 1.80 7.5 103.1 N/A 10
6:00 NW 13 gusts 16 1.80 7.5 103.1 N/A 10
5:00 NW 13 gusts 16 1.80 8.8 103.0 N/A 10
4:00 WNW 15 gusts 17 N/A 9.1 103.0 N/A 10
3:00 NW 13 gusts 16 2.00 8.3 103.0 N/A 10
2:00 NW 13 gusts 16 2.00 7.8 102.9 N/A 10
1:00 NNW 14 gusts 16 2.00 8.0 102.9 N/A 10
0:00 NW 13 gusts 15 2.20 8.5 102.9 N/A 10
18 May 2024
23:00 NW 15 gusts 17 2.20 8.0 102.9 N/A 10
22:00 NW 19 gusts 23 2.20 7.3 102.8 N/A 10
21:00 NW 16 gusts 19 2.10 8.3 102.8 N/A 10
20:00 NW 16 gusts 20 2.20 7.8 102.8 N/A 10
19:00 NW 16 gusts 20 2.20 7.8 102.8 N/A 10
18:00 NW 16 gusts 19 2.30 6.7 102.8 N/A 10
17:00 NW 17 gusts 19 2.30 7.3 102.7 N/A 10
16:00 NW 17 gusts 21 2.20 7.5 102.7 N/A 10
15:00 NW 17 gusts 20 2.10 7.1 102.7 N/A 10
14:00 NNW 17 gusts 22 2.10 6.6 102.7 N/A 10
13:00 WNW 16 gusts 19 2.20 7.1 102.7 N/A 10

Zoom-in to make a selection

Map of Pacific - North Coast marine weather areas Middle Nomad - 46004 South Nomad - 46036 Dixon Entrance Central - 46145 South Moresby - 46147 Nanakwa Shoal - 46181 North Hecate Strait - 46183 North Nomad - 46184 South Hecate Strait - 46185 West Sea Otter - 46204 West Dixon Entrance - 46205 East Dellwood - 46207 West Moresby - 46208 Sartine Island Cape St.James Kindakun Rocks Langara Island Masset Municipal Airport Rose Spit Sandspit Airport Bella Bella Airport Bella Coola Airport Bonilla Island Cathedral Point Cumshewa Island Grey Islet Holland Rock Lucy Islands Lightstation Prince Rupert Airport
Legend:
buoy Buoy
land station Land Station

Pacific - North Coast Area

Another Region

Date modified: